Time;durP1;ratioP1;P1;durP2;ratioP2;P2;SDS_P1;SDS_P2;PMS_P1;PMS_P2;Temp;Humidity;BMP_temperature;BMP_pressure;BME280_temperature;BME280_humidity;BME280_pressure;Samples;Min_cycle;Max_cycle;Signal;HPM_P1;HPM_P2
2023/11/25 00:00:06;;;;;;;3.95;1.23;;;2.00;99.90;;;;;;4915634;29;20083;-68
2023/11/25 00:02:33;;;;;;;7.10;1.08;;;2.00;99.90;;;;;;4914620;29;20477;-68
2023/11/25 00:04:59;;;;;;;2.50;1.05;;;2.00;99.90;;;;;;4915923;29;20393;-68
2023/11/25 00:07:25;;;;;;;2.63;0.90;;;1.90;99.90;;;;;;4914718;29;20040;-68
2023/11/25 00:09:51;;;;;;;3.45;0.95;;;1.90;99.90;;;;;;4916201;29;20036;-67
2023/11/25 00:12:16;;;;;;;5.13;1.00;;;1.80;99.90;;;;;;4927750;29;20030;-67
2023/11/25 00:14:42;;;;;;;7.03;1.17;;;1.90;99.90;;;;;;4916156;29;20031;-67
2023/11/25 00:17:08;;;;;;;5.97;1.13;;;1.90;99.90;;;;;;4915352;29;20067;-67
2023/11/25 00:19:34;;;;;;;5.53;1.25;;;1.90;99.90;;;;;;4915025;29;20032;-67
2023/11/25 00:22:00;;;;;;;2.63;1.08;;;1.90;99.90;;;;;;4915160;29;20401;-67
2023/11/25 00:24:26;;;;;;;6.20;1.08;;;1.90;99.90;;;;;;4915019;29;20035;-68
2023/11/25 00:26:52;;;;;;;4.63;1.00;;;1.90;99.90;;;;;;4915010;29;20436;-67
2023/11/25 00:29:18;;;;;;;7.93;1.33;;;1.90;99.90;;;;;;4914966;29;20043;-67
2023/11/25 00:31:47;;;;;;;4.32;1.00;;;2.00;99.90;;;;;;4915124;29;20087;-67
2023/11/25 00:34:13;;;;;;;9.77;0.93;;;2.10;99.90;;;;;;4914989;29;20098;-66
2023/11/25 00:36:38;;;;;;;6.90;0.85;;;2.00;99.90;;;;;;4914376;29;20087;-68
2023/11/25 00:39:06;;;;;;;4.45;0.98;;;2.00;99.90;;;;;;4915479;29;20060;-68
2023/11/25 00:41:33;;;;;;;8.98;1.17;;;2.10;99.90;;;;;;4913810;29;20055;-67
2023/11/25 00:43:59;;;;;;;7.05;1.27;;;2.10;99.90;;;;;;4915394;29;20052;-68
2023/11/25 00:46:25;;;;;;;7.60;0.75;;;2.10;99.90;;;;;;4913883;29;20039;-68
2023/11/25 00:48:52;;;;;;;4.95;1.00;;;2.20;99.90;;;;;;4915176;29;20035;-68
2023/11/25 00:51:18;;;;;;;9.98;1.25;;;2.20;99.90;;;;;;4913906;29;20108;-68
2023/11/25 00:53:43;;;;;;;3.67;0.63;;;2.10;99.90;;;;;;4915147;29;20525;-68
2023/11/25 00:56:10;;;;;;;5.20;1.02;;;2.20;99.90;;;;;;4914534;29;20393;-67
2023/11/25 00:58:36;;;;;;;6.72;0.93;;;2.20;99.90;;;;;;4914627;29;20039;-68
2023/11/25 01:01:04;;;;;;;4.95;1.08;;;2.30;99.90;;;;;;4914872;29;20032;-69
2023/11/25 01:03:29;;;;;;;4.57;0.90;;;2.20;99.90;;;;;;4913628;29;20100;-69
2023/11/25 01:05:55;;;;;;;7.45;0.95;;;2.20;99.90;;;;;;4914866;29;20065;-68
2023/11/25 01:08:21;;;;;;;4.65;0.80;;;2.10;99.90;;;;;;4913869;29;20049;-67
2023/11/25 01:10:47;;;;;;;7.55;0.80;;;2.10;99.90;;;;;;4911860;29;20032;-68
2023/11/25 01:13:12;;;;;;;7.32;0.80;;;2.10;99.90;;;;;;4903740;29;20024;-65
2023/11/25 01:15:38;;;;;;;7.15;1.02;;;2.10;99.90;;;;;;4914381;29;20063;-67
2023/11/25 01:18:04;;;;;;;3.58;0.70;;;2.10;99.90;;;;;;4914927;29;20036;-67
2023/11/25 01:20:30;;;;;;;4.13;0.90;;;2.20;99.90;;;;;;4913634;29;20036;-67
2023/11/25 01:22:56;;;;;;;7.20;1.02;;;2.10;99.90;;;;;;4914655;29;20028;-67
2023/11/25 01:25:21;;;;;;;4.55;0.68;;;2.10;99.90;;;;;;4913801;29;20039;-67
2023/11/25 01:27:47;;;;;;;3.00;0.70;;;2.10;99.90;;;;;;4914902;29;20083;-68
2023/11/25 01:30:13;;;;;;;3.80;1.10;;;2.00;99.90;;;;;;4914231;29;20071;-66
2023/11/25 01:32:39;;;;;;;3.17;0.63;;;2.00;99.90;;;;;;4914674;29;20020;-67
2023/11/25 01:35:05;;;;;;;5.35;0.98;;;2.00;99.90;;;;;;4914930;29;20481;-67
2023/11/25 01:37:31;;;;;;;7.93;1.15;;;1.90;99.90;;;;;;4913334;29;20225;-67
2023/11/25 01:39:57;;;;;;;5.95;1.05;;;1.80;99.90;;;;;;4914870;29;20024;-67
2023/11/25 01:42:24;;;;;;;4.30;0.60;;;1.80;99.90;;;;;;4913107;29;20040;-67
2023/11/25 01:44:50;;;;;;;4.85;0.95;;;1.70;99.90;;;;;;4914550;29;20028;-68
2023/11/25 01:47:15;;;;;;;7.35;1.02;;;1.70;99.90;;;;;;4913140;29;20028;-68
2023/11/25 01:49:42;;;;;;;4.50;0.73;;;1.80;99.90;;;;;;4914965;29;20052;-68
2023/11/25 01:52:09;;;;;;;8.68;0.93;;;1.90;99.90;;;;;;4914316;29;20056;-68
2023/11/25 01:54:35;;;;;;;1.35;0.40;;;1.90;99.90;;;;;;4913907;29;20032;-68
2023/11/25 01:57:02;;;;;;;5.95;1.13;;;1.80;99.90;;;;;;4914412;29;20039;-67
2023/11/25 01:59:29;;;;;;;5.68;0.80;;;1.90;99.90;;;;;;4913973;29;20075;-67
2023/11/25 02:01:56;;;;;;;3.08;1.00;;;1.90;99.90;;;;;;4914201;29;20028;-68
2023/11/25 02:04:22;;;;;;;2.92;0.80;;;1.90;99.90;;;;;;4914014;29;20024;-68
2023/11/25 02:06:49;;;;;;;3.78;1.00;;;2.00;99.90;;;;;;4914027;29;20067;-67
2023/11/25 02:09:16;;;;;;;2.25;0.70;;;2.00;99.90;;;;;;4913849;29;20052;-67
2023/11/25 02:11:59;;;;;;;6.45;0.95;;;2.00;99.90;;;;;;4914120;29;20035;-68
2023/11/25 02:14:25;;;;;;;5.25;1.27;;;2.00;99.90;;;;;;4915876;29;20466;-67
2023/11/25 02:16:54;;;;;;;3.38;0.95;;;2.00;99.90;;;;;;4917630;29;20051;-67
2023/11/25 02:19:26;;;;;;;6.35;1.08;;;1.90;99.90;;;;;;4916941;29;20028;-67
2023/11/25 02:21:52;;;;;;;6.53;1.27;;;1.90;99.90;;;;;;4917550;29;20040;-69
2023/11/25 02:24:18;;;;;;;5.97;1.20;;;1.90;99.90;;;;;;4916876;29;20032;-67
2023/11/25 02:26:43;;;;;;;8.55;1.20;;;1.90;99.90;;;;;;4917274;29;20032;-67
2023/11/25 02:29:09;;;;;;;5.18;1.25;;;1.80;99.90;;;;;;4917396;29;20474;-67
2023/11/25 02:31:38;;;;;;;8.23;1.00;;;1.80;99.90;;;;;;4917190;29;20080;-67
2023/11/25 02:34:07;;;;;;;4.15;0.95;;;1.70;99.90;;;;;;4917714;29;20031;-67
2023/11/25 02:36:33;;;;;;;7.05;1.30;;;1.70;99.90;;;;;;4915993;29;20087;-67
2023/11/25 02:39:00;;;;;;;5.15;1.20;;;1.70;99.90;;;;;;4917793;29;20032;-67
2023/11/25 02:41:27;;;;;;;5.50;0.80;;;1.60;99.90;;;;;;4915963;29;20040;-66
2023/11/25 02:43:53;;;;;;;4.70;1.00;;;1.50;99.90;;;;;;4917146;29;20394;-67
2023/11/25 02:46:18;;;;;;;4.32;1.95;;;1.50;99.90;;;;;;4915936;29;20036;-67
2023/11/25 02:48:44;;;;;;;12.32;1.60;;;1.50;99.90;;;;;;4917440;29;20103;-67
2023/11/25 02:51:10;;;;;;;11.25;1.25;;;1.30;99.90;;;;;;4916968;29;20453;-65
2023/11/25 02:53:35;;;;;;;9.98;1.45;;;1.30;99.90;;;;;;4916763;29;20024;-67
2023/11/25 02:56:01;;;;;;;5.70;1.30;;;1.30;99.90;;;;;;4916732;29;20040;-66
2023/11/25 02:58:27;;;;;;;6.20;1.30;;;1.30;99.90;;;;;;4916800;29;20043;-66
2023/11/25 03:01:01;;;;;;;5.53;1.30;;;1.30;99.90;;;;;;4916900;29;20146;-68
2023/11/25 03:03:29;;;;;;;5.35;1.40;;;1.40;99.90;;;;;;4915992;29;20040;-66
2023/11/25 03:05:55;;;;;;;7.20;1.20;;;1.40;99.90;;;;;;4916476;29;20385;-68
2023/11/25 03:08:22;;;;;;;7.10;1.42;;;1.40;99.90;;;;;;4915700;29;20079;-67
2023/11/25 03:10:50;;;;;;;2.35;1.08;;;1.40;99.90;;;;;;4913153;29;20151;-67
2023/11/25 03:13:16;;;;;;;13.77;1.77;;;1.40;99.90;;;;;;4898976;29;20020;-66
2023/11/25 03:15:42;;;;;;;8.10;1.38;;;1.40;99.90;;;;;;4899367;29;20103;-67
2023/11/25 03:18:08;;;;;;;6.18;1.50;;;1.30;99.90;;;;;;4916593;29;20112;-67
2023/11/25 03:20:35;;;;;;;5.90;1.35;;;1.30;99.90;;;;;;4912946;29;20024;-67
2023/11/25 03:23:03;;;;;;;10.77;1.55;;;1.30;99.90;;;;;;4916258;29;20056;-67
2023/11/25 03:25:30;;;;;;;8.43;2.05;;;1.40;99.90;;;;;;4897288;29;20143;-67
2023/11/25 03:27:57;;;;;;;8.52;1.33;;;1.40;99.90;;;;;;4916203;29;20028;-67
2023/11/25 03:30:23;;;;;;;7.13;1.30;;;1.40;99.90;;;;;;4898081;29;20540;-67
2023/11/25 03:32:49;;;;;;;7.97;1.70;;;1.60;99.90;;;;;;4915913;29;20385;-68
2023/11/25 03:35:16;;;;;;;16.35;1.65;;;1.60;99.90;;;;;;4915152;29;20422;-66
2023/11/25 03:37:41;;;;;;;6.72;1.35;;;1.60;99.90;;;;;;4915820;29;20044;-68
2023/11/25 03:40:10;;;;;;;4.95;1.27;;;1.60;99.90;;;;;;4916063;29;20043;-67
2023/11/25 03:42:36;;;;;;;4.70;1.20;;;1.70;99.90;;;;;;4912648;29;20028;-67
2023/11/25 03:45:02;;;;;;;10.10;1.30;;;1.80;99.90;;;;;;4915709;29;20359;-67
2023/11/25 03:47:31;;;;;;;7.85;1.40;;;1.90;99.90;;;;;;4914778;29;20036;-67
2023/11/25 03:49:56;;;;;;;8.82;1.50;;;2.00;99.90;;;;;;4915894;29;20028;-67
2023/11/25 03:52:22;;;;;;;10.38;1.42;;;1.90;99.90;;;;;;4914705;29;20028;-68
2023/11/25 03:54:48;;;;;;;6.40;2.17;;;1.80;99.90;;;;;;4915662;29;20036;-67
2023/11/25 03:57:14;;;;;;;6.70;1.42;;;1.80;99.90;;;;;;4914661;29;20110;-67
2023/11/25 03:59:39;;;;;;;9.25;1.75;;;1.90;99.90;;;;;;4915919;29;20107;-68
2023/11/25 04:02:06;;;;;;;5.43;1.30;;;1.90;99.90;;;;;;4915198;29;20181;-66
2023/11/25 04:04:32;;;;;;;10.05;1.42;;;1.80;99.90;;;;;;4914688;29;20052;-66
2023/11/25 04:06:58;;;;;;;2.80;1.02;;;1.80;99.90;;;;;;4915604;29;20040;-66
2023/11/25 04:09:24;;;;;;;10.25;1.33;;;1.70;99.90;;;;;;4914777;29;20028;-66
2023/11/25 04:11:50;;;;;;;6.22;1.13;;;1.60;99.90;;;;;;4915088;29;20039;-66
2023/11/25 04:14:16;;;;;;;8.02;1.77;;;1.50;99.90;;;;;;4917855;29;20040;-65
2023/11/25 04:16:43;;;;;;;8.00;2.40;;;1.60;99.90;;;;;;4919818;29;20039;-66
2023/11/25 04:19:09;;;;;;;5.47;1.55;;;1.60;99.90;;;;;;4918065;29;20095;-67
2023/11/25 04:21:39;;;;;;;10.50;2.28;;;1.50;99.90;;;;;;4915418;29;20075;-66
2023/11/25 04:24:06;;;;;;;;;;;1.50;99.90;;;;;;4918108;29;20056;-67
2023/11/25 04:26:32;;;;;;;5.93;1.30;;;1.50;99.90;;;;;;4919477;29;20551;-66
2023/11/25 04:28:57;;;;;;;5.70;1.30;;;1.60;99.90;;;;;;4915969;29;20020;-67
2023/11/25 04:31:23;;;;;;;5.28;1.33;;;1.60;99.90;;;;;;4914433;29;20067;-66
2023/11/25 04:33:48;;;;;;;13.13;2.22;;;1.60;99.90;;;;;;4915313;29;20119;-66
2023/11/25 04:36:17;;;;;;;7.93;1.05;;;1.60;99.90;;;;;;4913907;29;20032;-65
2023/11/25 04:38:43;;;;;;;7.18;1.33;;;1.70;99.90;;;;;;4915527;29;20043;-67
2023/11/25 04:41:09;;;;;;;4.82;1.20;;;1.70;99.90;;;;;;4913743;29;20036;-68
2023/11/25 04:43:34;;;;;;;7.28;0.95;;;1.70;99.90;;;;;;4913230;29;20042;-66
2023/11/25 04:46:04;;;;;;;6.40;1.17;;;1.70;99.90;;;;;;4914964;29;20040;-68
2023/11/25 04:48:30;;;;;;;;;;;1.70;99.90;;;;;;4915217;29;20031;-67
2023/11/25 04:50:55;;;;;;;7.78;1.30;;;1.70;99.90;;;;;;4914941;29;19993;-66
2023/11/25 04:53:21;;;;;;;8.00;1.35;;;1.60;99.90;;;;;;4914790;29;20525;-66
2023/11/25 04:55:48;;;;;;;8.18;1.25;;;1.50;99.90;;;;;;4914802;29;20039;-67
2023/11/25 04:58:14;;;;;;;4.05;0.93;;;1.40;99.90;;;;;;4897626;29;20386;-65
2023/11/25 05:00:40;;;;;;;2.00;1.25;;;1.30;99.90;;;;;;4914918;29;20024;-68
2023/11/25 05:03:05;;;;;;;3.83;1.13;;;1.20;99.90;;;;;;4915593;29;20028;-68
2023/11/25 05:05:32;;;;;;;8.45;1.42;;;1.10;99.90;;;;;;4913949;29;20024;-66
2023/11/25 05:07:57;;;;;;;3.78;1.15;;;1.00;99.90;;;;;;4914865;29;20374;-66
2023/11/25 05:10:23;;;;;;;3.22;1.08;;;1.00;99.90;;;;;;4913883;29;20039;-68
2023/11/25 05:12:53;;;;;;;5.03;1.05;;;1.10;99.90;;;;;;4915075;29;20436;-66
2023/11/25 05:15:22;;;;;;;5.00;1.08;;;1.00;99.90;;;;;;4913436;29;20401;-68
2023/11/25 05:17:47;;;;;;;7.72;0.75;;;0.90;99.90;;;;;;4915344;29;20032;-69
2023/11/25 05:20:15;;;;;;;9.30;1.15;;;1.00;99.90;;;;;;4914526;29;20367;-65
2023/11/25 05:22:42;;;;;;;7.82;1.27;;;0.90;99.90;;;;;;4914975;29;20024;-68
2023/11/25 05:25:13;;;;;;;5.57;1.30;;;0.80;99.90;;;;;;4915148;29;20036;-68
2023/11/25 05:27:39;;;;;;;6.28;1.05;;;1.00;99.90;;;;;;4897279;29;20040;-68
2023/11/25 05:30:05;;;;;;;3.08;1.15;;;0.90;99.90;;;;;;4914930;29;20031;-68
2023/11/25 05:32:31;;;;;;;5.72;1.42;;;0.80;99.90;;;;;;4913660;29;20056;-68
2023/11/25 05:34:57;;;;;;;4.18;1.13;;;0.80;99.90;;;;;;4915013;29;20067;-68
2023/11/25 05:37:22;;;;;;;6.20;1.17;;;0.80;99.90;;;;;;4913468;29;20044;-65
2023/11/25 05:39:50;;;;;;;13.75;1.50;;;0.70;99.90;;;;;;4915142;29;20044;-65
2023/11/25 05:42:23;;;;;;;5.32;1.00;;;0.70;99.90;;;;;;4907181;29;20024;-65
2023/11/25 05:44:49;;;;;;;7.55;1.00;;;0.70;99.90;;;;;;4914917;29;20032;-67
2023/11/25 05:47:15;;;;;;;6.57;1.40;;;;;;;;;;4913557;29;20036;-65
2023/11/25 05:49:41;;;;;;;6.80;1.33;;;;;;;;;;4917404;29;20031;-66
2023/11/25 05:52:07;;;;;;;3.92;1.23;;;;;;;;;;4917972;29;20051;-66
2023/11/25 05:54:33;;;;;;;4.50;0.85;;;;;;;;;;4916264;29;20032;-66
2023/11/25 05:56:59;;;;;;;6.63;1.73;;;;;;;;;;4917972;29;20042;-67
2023/11/25 05:59:25;;;;;;;8.02;1.65;;;;;;;;;;4917256;29;20079;-68
2023/11/25 06:01:51;;;;;;;8.93;1.55;;;;;;;;;;4900796;29;20106;-65
2023/11/25 06:04:18;;;;;;;12.10;1.23;;;;;;;;;;4917203;29;20020;-65
2023/11/25 06:06:44;;;;;;;5.47;1.08;;;;;;;;;;4917253;29;20059;-65
2023/11/25 06:09:11;;;;;;;10.80;1.58;;;;;;;;;;4918280;29;20462;-66
2023/11/25 06:11:38;;;;;;;6.22;1.00;;;;;;;;;;4920882;29;20028;-68
2023/11/25 06:14:04;;;;;;;5.80;1.20;;;;;;;;;;4916701;29;20402;-67
2023/11/25 06:16:30;;;;;;;6.75;1.33;;;;;;;;;;4916376;29;20698;-68
2023/11/25 06:18:57;;;;;;;7.78;1.60;;;;;;;;;;4917666;29;20024;-67
2023/11/25 06:21:23;;;;;;;6.32;1.60;;;;;;;;;;4910713;29;20415;-67
2023/11/25 06:23:50;;;;;;;6.78;1.42;;;;;;;;;;4916387;29;20032;-67
2023/11/25 06:26:16;;;;;;;6.15;1.30;;;;;;;;;;4913971;29;20040;-66
2023/11/25 06:28:46;;;;;;;3.20;1.20;;;;;;;;;;4917011;29;20024;-67
2023/11/25 06:31:12;;;;;;;9.95;1.52;;;;;;;;;;4911911;29;20112;-68
2023/11/25 06:33:39;;;;;;;7.20;1.30;;;;;;;;;;4915802;29;20059;-67
2023/11/25 06:36:06;;;;;;;11.38;2.33;;;;;;;;;;4911633;29;20087;-67
2023/11/25 06:38:33;;;;;;;7.15;1.30;;;;;;;;;;4915044;29;20688;-68
2023/11/25 06:41:00;;;;;;;8.45;1.75;;;;;;;;;;4912173;29;20032;-67
2023/11/25 06:43:26;;;;;;;9.25;1.73;;;;;;;;;;4906811;29;20032;-68
2023/11/25 06:45:53;;;;;;;5.07;1.30;;;;;;;;;;4906315;29;20032;-66
2023/11/25 06:48:19;;;;;;;6.50;1.50;;;;;;;;;;4913464;29;20055;-65
2023/11/25 06:50:45;;;;;;;4.47;1.45;;;;;;;;;;4914499;29;20028;-68
2023/11/25 06:53:11;;;;;;;8.98;2.10;;;;;;;;;;4915922;29;20052;-66
2023/11/25 06:55:41;;;;;;;6.63;1.50;;;;;;;;;;4907853;29;20031;-66
2023/11/25 06:58:07;;;;;;;5.82;1.48;;;;;;;;;;4912836;29;20103;-67
2023/11/25 07:00:33;;;;;;;6.03;1.35;;;;;;;;;;4899466;29;20214;-68
2023/11/25 07:02:59;;;;;;;7.15;1.25;;;;;;;;;;4916270;29;20413;-68
2023/11/25 07:05:26;;;;;;;8.35;1.48;;;;;;;;;;4909913;29;20161;-66
2023/11/25 07:07:53;;;;;;;6.53;1.58;;;;;;;;;;4915648;29;20039;-67
2023/11/25 07:10:21;;;;;;;9.23;1.58;;;;;;;;;;4910562;29;20029;-69
2023/11/25 07:12:47;;;;;;;7.03;1.40;;;;;;;;;;4915687;29;20039;-69
2023/11/25 07:15:14;;;;;;;6.25;1.50;;;;;;;;;;4911046;29;20025;-66
2023/11/25 07:17:40;;;;;;;8.32;1.30;;;;;;;;;;4908045;29;20024;-69
2023/11/25 07:20:13;;;;;;;6.20;1.60;;;;;;;;;;4911799;29;20104;-68
2023/11/25 07:22:40;;;;;;;7.90;1.77;;;;;;;;;;4900332;29;20024;-68
2023/11/25 07:25:11;;;;;;;10.13;1.55;;;;;;;;;;4912467;29;20025;-67
2023/11/25 07:27:38;;;;;;;4.47;1.08;;;;;;;;;;4907372;29;20114;-67
2023/11/25 07:30:05;;;;;;;9.82;1.60;;;;;;;;;;4912119;29;20025;-67
2023/11/25 07:32:32;;;;;;;8.00;1.48;;;;;;;;;;4913295;29;20034;-66
2023/11/25 07:34:58;;;;;;;4.60;1.33;;;;;;;;;;4912454;29;20091;-67
2023/11/25 07:37:23;;;;;;;5.45;1.60;;;;;;;;;;4912163;29;20493;-66
2023/11/25 07:39:50;;;;;;;5.85;0.98;;;;;;;;;;4914358;29;20028;-67
2023/11/25 07:42:16;;;;;;;7.78;1.70;;;;;;;;;;4911448;29;20028;-66
2023/11/25 07:44:42;;;;;;;3.72;1.20;;;;;;;;;;4914600;29;20033;-66
2023/11/25 07:47:08;;;;;;;4.03;1.30;;;;;;;;;;4904042;29;20051;-69
2023/11/25 07:49:34;;;;;;;4.15;1.02;;;;;;;;;;4913306;29;20473;-68
2023/11/25 07:52:00;;;;;;;4.55;1.10;;;;;;;;;;4911285;29;20028;-67
2023/11/25 07:54:26;;;;;;;7.75;1.52;;;;;;;;;;4914543;29;20497;-69
2023/11/25 07:56:52;;;;;;;3.53;0.93;;;;;;;;;;4903492;29;20565;-68
2023/11/25 07:59:18;;;;;;;6.88;1.40;;;;;;;;;;4913856;29;20052;-68
2023/11/25 08:01:45;;;;;;;7.95;1.40;;;;;;;;;;4910922;29;20032;-68
2023/11/25 08:04:10;;;;;;;8.48;1.45;;;2.30;99.90;;;;;;4914237;29;20024;-68
2023/11/25 08:06:37;;;;;;;8.95;1.45;;;2.20;99.90;;;;;;4911473;29;20051;-67
2023/11/25 08:09:02;;;;;;;5.65;1.35;;;2.30;99.90;;;;;;4914726;29;20382;-67
2023/11/25 08:11:29;;;;;;;4.22;1.30;;;2.30;99.90;;;;;;4909523;29;20032;-73
2023/11/25 08:13:55;;;;;;;12.38;2.20;;;2.40;99.90;;;;;;4914194;29;20486;-69
2023/11/25 08:16:20;;;;;;;3.20;1.05;;;2.40;99.90;;;;;;4912462;29;20086;-69
2023/11/25 08:18:47;;;;;;;3.67;1.15;;;2.40;99.90;;;;;;4914059;29;20024;-70
2023/11/25 08:21:14;;;;;;;5.28;1.52;;;2.50;99.90;;;;;;4909487;29;20099;-68
2023/11/25 08:23:41;;;;;;;5.35;1.25;;;2.50;99.90;;;;;;4914422;29;20032;-69
2023/11/25 08:26:20;;;;;;;5.93;1.45;;;2.50;99.90;;;;;;4902964;29;20088;-67
2023/11/25 08:28:48;;;;;;;3.57;1.23;;;2.60;99.90;;;;;;4900975;29;20028;-68
2023/11/25 08:31:15;;;;;;;13.05;1.80;;;2.70;99.90;;;;;;4909006;29;20035;-68
2023/11/25 08:33:41;;;;;;;8.52;1.80;;;2.80;99.90;;;;;;4913757;29;20032;-69
2023/11/25 08:36:08;;;;;;;3.65;1.00;;;2.70;99.90;;;;;;4909851;29;20110;-69
2023/11/25 08:38:34;;;;;;;4.30;1.35;;;2.70;99.90;;;;;;4896687;29;20048;-68
2023/11/25 08:41:00;;;;;;;4.57;1.00;;;2.70;99.90;;;;;;4908682;29;20470;-70
2023/11/25 08:43:26;;;;;;;6.65;1.10;;;2.70;99.90;;;;;;4912708;29;20106;-69
2023/11/25 08:45:53;;;;;;;7.35;1.20;;;2.80;99.90;;;;;;4903106;29;20033;-69
2023/11/25 08:48:19;;;;;;;5.00;1.08;;;2.80;99.90;;;;;;4910545;29;20039;-70
2023/11/25 08:50:45;;;;;;;7.28;1.50;;;2.90;99.90;;;;;;4913902;29;20020;-68
2023/11/25 08:53:10;;;;;;;4.57;1.30;;;3.00;99.90;;;;;;4914397;29;20469;-68
2023/11/25 08:55:36;;;;;;;7.47;1.20;;;3.10;99.90;;;;;;4894765;29;20497;-70
2023/11/25 08:58:03;;;;;;;5.07;1.40;;;3.30;99.90;;;;;;4914081;29;20036;-72
2023/11/25 09:00:29;;;;;;;10.85;1.70;;;3.40;99.90;;;;;;4912742;29;20040;-72
2023/11/25 09:02:57;;;;;;;4.47;1.20;;;3.60;99.90;;;;;;4913616;29;20478;-67
2023/11/25 09:05:25;;;;;;;3.33;1.00;;;3.50;99.90;;;;;;4910193;29;20035;-69
2023/11/25 09:07:56;;;;;;;4.80;1.25;;;3.60;99.90;;;;;;4914071;29;20554;-68
2023/11/25 09:10:23;;;;;;;6.57;1.23;;;3.60;99.90;;;;;;4912907;29;20032;-67
2023/11/25 09:12:52;;;;;;;11.43;2.10;;;3.60;99.90;;;;;;4917671;29;20103;-67
2023/11/25 09:15:18;;;;;;;7.20;0.93;;;3.70;99.90;;;;;;4913205;29;20107;-70
2023/11/25 09:17:44;;;;;;;22.40;3.03;;;3.70;99.90;;;;;;4914370;29;20020;-70
2023/11/25 09:20:12;;;;;;;13.80;1.63;;;3.70;99.90;;;;;;4913680;29;20034;-71
2023/11/25 09:22:39;;;;;;;14.00;2.25;;;3.80;99.90;;;;;;4913481;29;20016;-72
2023/11/25 09:25:05;;;;;;;5.63;1.42;;;3.80;99.90;;;;;;4916979;29;20032;-68
2023/11/25 09:27:30;;;;;;;5.85;1.35;;;3.90;99.90;;;;;;4916234;29;20205;-68
2023/11/25 09:29:56;;;;;;;9.48;1.55;;;4.10;99.90;;;;;;4917400;29;20533;-69
2023/11/25 09:32:24;;;;;;;10.85;1.80;;;4.10;99.90;;;;;;4916269;29;20355;-69
2023/11/25 09:34:49;;;;;;;13.55;2.53;;;4.00;99.90;;;;;;4917285;29;20032;-65
2023/11/25 09:37:15;;;;;;;7.38;1.52;;;4.00;99.90;;;;;;4878363;29;1104505;-66
2023/11/25 09:39:41;;;;;;;12.63;2.58;;;3.90;99.90;;;;;;4922247;29;20028;-68
2023/11/25 09:42:08;;;;;;;13.13;1.80;;;3.80;99.90;;;;;;4918350;29;20028;-67
2023/11/25 09:44:34;;;;;;;12.38;2.53;;;3.90;99.90;;;;;;4903454;29;20103;-66
2023/11/25 09:47:00;;;;;;;13.00;2.03;;;3.80;99.90;;;;;;4917816;29;20032;-68
2023/11/25 09:49:26;;;;;;;7.22;1.50;;;3.90;99.90;;;;;;4917801;29;20043;-71
2023/11/25 09:51:54;;;;;;;12.50;2.95;;;4.00;99.90;;;;;;4917703;29;20036;-70
2023/11/25 09:54:23;;;;;;;14.43;2.60;;;4.00;99.90;;;;;;4917565;29;20492;-69
2023/11/25 09:56:52;;;;;;;15.18;2.13;;;4.00;99.90;;;;;;4917794;29;20031;-67
2023/11/25 09:59:18;;;;;;;7.53;1.88;;;4.10;99.90;;;;;;4907968;29;20043;-68
2023/11/25 10:01:44;;;;;;;15.77;1.88;;;4.10;99.90;;;;;;4917694;29;20036;-66
2023/11/25 10:04:14;;;;;;;10.68;2.10;;;4.20;99.90;;;;;;4917958;29;20389;-68
2023/11/25 10:06:40;;;;;;;12.00;2.40;;;4.20;99.90;;;;;;4917697;29;20087;-70
2023/11/25 10:09:10;;;;;;;13.02;2.70;;;4.30;99.90;;;;;;4918232;29;20099;-66
2023/11/25 10:11:39;;;;;;;14.82;3.00;;;4.40;99.90;;;;;;4916884;29;20115;-69
2023/11/25 10:14:09;;;;;;;11.82;2.58;;;4.60;99.90;;;;;;4921383;29;20130;-68
2023/11/25 10:16:34;;;;;;;;;;;4.80;99.90;;;;;;4902043;29;20032;-64
2023/11/25 10:19:00;;;;;;;15.40;2.03;;;5.00;99.90;;;;;;4918050;29;20313;-64
2023/11/25 10:21:25;;;;;;;18.08;2.65;;;5.10;99.90;;;;;;4916316;29;20028;-65
2023/11/25 10:23:54;;;;;;;12.77;2.25;;;5.20;99.90;;;;;;4918100;29;20055;-65
2023/11/25 10:26:20;;;;;;;13.07;2.00;;;5.40;99.90;;;;;;4916368;29;20032;-66
2023/11/25 10:28:46;;;;;;;10.77;2.05;;;5.40;99.90;;;;;;4917515;29;20028;-65
2023/11/25 10:31:14;;;;;;;12.45;2.03;;;5.40;99.90;;;;;;4916202;29;20433;-66
2023/11/25 10:33:41;;;;;;;12.55;2.28;;;5.30;99.90;;;;;;4917114;29;20020;-65
2023/11/25 10:36:10;;;;;;;13.80;2.03;;;5.20;99.90;;;;;;4916388;29;20027;-66
2023/11/25 10:38:39;;;;;;;12.73;1.83;;;5.20;99.90;;;;;;4901119;29;20136;-65
2023/11/25 10:41:05;;;;;;;16.47;2.80;;;5.20;99.90;;;;;;4916195;29;20059;-65
2023/11/25 10:43:32;;;;;;;13.52;2.10;;;5.10;99.90;;;;;;4916486;29;20095;-65
2023/11/25 10:46:05;;;;;;;10.18;2.20;;;5.20;99.90;;;;;;4916722;29;20032;-65
2023/11/25 10:48:38;;;;;;;13.93;1.95;;;5.20;99.90;;;;;;4916182;29;20107;-65
2023/11/25 10:51:05;;;;;;;15.93;2.55;;;5.30;99.90;;;;;;4916202;29;20091;-65
2023/11/25 10:53:32;;;;;;;14.32;2.53;;;5.40;99.90;;;;;;4916504;29;20024;-65
2023/11/25 10:55:59;;;;;;;12.80;1.85;;;5.60;99.90;;;;;;4916600;29;20036;-65
2023/11/25 10:58:26;;;;;;;8.70;1.80;;;5.70;99.90;;;;;;4916138;29;20032;-64
2023/11/25 11:00:54;;;;;;;13.90;2.05;;;5.70;99.90;;;;;;4916122;29;20517;-64
2023/11/25 11:03:55;;;;;;;14.00;2.47;;;5.70;99.90;;;;;;4915829;29;20036;-65
2023/11/25 11:06:27;;;;;;;9.55;1.90;;;5.80;99.90;;;;;;4922699;29;20040;-65
2023/11/25 11:08:53;;;;;;;7.57;1.40;;;5.90;99.90;;;;;;4921294;29;20036;-64
2023/11/25 11:11:46;;;;;;;12.02;1.95;;;5.90;99.90;;;;;;4917500;29;20047;-64
2023/11/25 11:14:14;;;;;;;12.57;2.10;;;5.90;99.90;;;;;;4917638;29;20470;-64
2023/11/25 11:16:40;;;;;;;10.40;1.95;;;6.00;99.90;;;;;;4916027;29;20181;-65
2023/11/25 11:19:07;;;;;;;15.13;2.17;;;6.10;99.90;;;;;;4916451;29;20432;-65
2023/11/25 11:21:43;;;;;;;12.25;2.13;;;6.10;99.90;;;;;;4914875;29;20065;-69
2023/11/25 11:24:12;;;;;;;9.68;2.20;;;6.10;99.90;;;;;;4915952;29;20027;-66
2023/11/25 11:26:43;;;;;;;10.27;1.95;;;6.20;99.90;;;;;;4915683;29;20164;-65
2023/11/25 11:29:28;;;;;;;11.95;1.77;;;6.00;99.90;;;;;;4916224;29;20111;-69
2023/11/25 11:32:07;;;;;;;13.27;2.05;;;5.80;99.90;;;;;;4919871;29;20119;-68
2023/11/25 11:34:39;;;;;;;15.77;3.30;;;5.60;99.90;;;;;;4913786;29;20060;-67
2023/11/25 11:37:07;;;;;;;14.93;2.05;;;5.50;99.90;;;;;;4915008;29;20060;-70
2023/11/25 11:40:04;;;;;;;7.03;1.83;;;5.50;99.90;;;;;;4915020;29;20632;-70
2023/11/25 11:42:32;;;;;;;15.45;2.05;;;5.70;99.90;;;;;;4882838;29;20040;-67
2023/11/25 11:47:57;;;;;;;11.48;1.83;;;5.90;99.90;;;;;;4914955;29;20124;-65
2023/11/25 11:50:31;;;;;;;9.02;1.73;;;5.80;99.90;;;;;;4914135;29;20489;-67
2023/11/25 11:53:00;;;;;;;9.88;1.98;;;5.70;99.90;;;;;;4915294;29;20060;-65
2023/11/25 11:55:37;;;;;;;9.73;1.50;;;5.30;99.90;;;;;;4914681;29;20038;-67
2023/11/25 11:58:16;;;;;;;8.30;1.48;;;4.90;99.90;;;;;;4915467;29;20032;-70
2023/11/25 12:00:46;;;;;;;13.90;2.00;;;4.60;99.90;;;;;;4915218;29;20064;-69
2023/11/25 12:03:12;;;;;;;6.35;2.42;;;4.30;99.90;;;;;;4915360;29;20024;-72
2023/11/25 12:05:38;;;;;;;10.35;1.90;;;4.10;99.90;;;;;;4915095;29;20032;-74
2023/11/25 12:08:05;;;;;;;6.55;1.40;;;3.90;99.90;;;;;;4915021;29;20087;-79
2023/11/25 12:10:31;;;;;;;12.30;2.08;;;3.70;99.90;;;;;;4913816;29;20020;-70
2023/11/25 12:12:57;;;;;;;8.40;1.42;;;3.70;99.90;;;;;;4917679;29;20099;-66
2023/11/25 12:15:23;;;;;;;10.77;1.40;;;3.70;99.90;;;;;;4913852;29;20052;-68
2023/11/25 12:17:50;;;;;;;6.38;1.58;;;3.80;99.90;;;;;;4915163;29;20051;-66
2023/11/25 12:20:16;;;;;;;7.63;1.20;;;3.90;99.90;;;;;;4913967;29;20036;-64
2023/11/25 12:22:43;;;;;;;6.70;1.27;;;4.00;99.90;;;;;;4913459;29;20035;-63
2023/11/25 12:25:16;;;;;;;9.50;1.30;;;4.10;99.90;;;;;;4915192;29;20109;-65
2023/11/25 12:28:09;;;;;;;8.57;1.20;;;4.30;99.90;;;;;;4915426;29;20032;-65
2023/11/25 12:30:39;;;;;;;2.95;1.05;;;4.20;99.90;;;;;;4914029;29;20032;-65
2023/11/25 12:33:06;;;;;;;5.80;1.02;;;4.20;99.90;;;;;;4915174;29;20039;-66
2023/11/25 12:35:43;;;;;;;12.70;1.20;;;4.20;99.90;;;;;;4914103;29;20098;-66
2023/11/25 12:38:10;;;;;;;7.97;1.55;;;4.10;99.90;;;;;;4914539;29;20056;-65
2023/11/25 12:40:36;;;;;;;3.28;0.90;;;4.00;99.90;;;;;;4913834;29;20135;-67
2023/11/25 12:43:06;;;;;;;5.55;0.98;;;4.10;99.90;;;;;;4915080;29;20034;-67
2023/11/25 12:45:41;;;;;;;9.47;1.03;;;4.00;99.90;;;;;;4913908;29;20091;-66
2023/11/25 12:48:09;;;;;;;5.68;1.42;;;4.10;99.90;;;;;;4914571;29;20865;-65
2023/11/25 12:51:06;;;;;;;6.78;1.27;;;4.10;99.90;;;;;;4901291;29;20056;-66
2023/11/25 12:53:34;;;;;;;5.32;0.93;;;4.00;99.90;;;;;;4913956;29;20032;-66
2023/11/25 12:56:01;;;;;;;6.05;1.95;;;4.00;99.90;;;;;;4914623;29;20108;-66
2023/11/25 12:58:26;;;;;;;5.90;1.13;;;4.00;99.90;;;;;;4913477;29;20469;-65
2023/11/25 13:01:00;;;;;;;4.47;0.95;;;3.90;99.90;;;;;;4913389;29;20121;-65
2023/11/25 13:03:32;;;;;;;3.08;1.00;;;3.90;99.90;;;;;;4913673;29;20039;-65
2023/11/25 13:06:02;;;;;;;4.13;1.08;;;4.00;99.90;;;;;;4913929;29;20060;-68
2023/11/25 13:08:31;;;;;;;8.77;1.10;;;4.10;99.90;;;;;;4913399;29;20036;-66
2023/11/25 13:10:59;;;;;;;5.82;0.98;;;4.20;99.90;;;;;;4913843;29;20111;-65
2023/11/25 13:13:29;;;;;;;5.60;0.80;;;4.30;99.90;;;;;;4917063;29;20114;-67
2023/11/25 13:15:55;;;;;;;6.35;1.30;;;4.40;99.90;;;;;;4914082;29;20381;-65